CheckWX is a tool to help pilots better visualize weather data.  It is not intended as a substitute for an official pre-flight weather briefing.

12:51:44 UTC

KDPA METAR
Dupage Airport
Chicago/West Chicago, Illinois, USA
Current

60 mins ago

KDPA 171152Z 03005KT 10SM OVC010 15/11 A2998 RMK AO2 SLP153 T01500111 10150 20139 51015
Observed
Jun-17 @ 11:52 UTC
Wind
  • 030° at 5 KTS
Visibility
10 SM
Flight Rules
MVFR
Cloud Levels
  • Overcast at 1,000' AGL
Temperature
15°C / 59°F
Dewpoint
11°C / 52°F
Humidity
77%
Altimeter
29.98" Hg
Pressure
1015.22 hPa
Previous

2 hours ago

KDPA 171052Z 02004KT 10SM OVC011 14/11 A2997 RMK AO2 SLP148 T01440111
Observed
Jun-17 @ 10:52 UTC
Wind
  • 020° at 4 KTS
Visibility
10 SM
Flight Rules
MVFR
Cloud Levels
  • Overcast at 1,100' AGL
Temperature
14°C / 57°F
Dewpoint
11°C / 52°F
Humidity
82%
Altimeter
29.97" Hg
Pressure
1014.92 hPa
Previous

3 hours ago

KDPA 171002Z 36005KT 10SM OVC010 14/11 A2996 RMK AO2 T01440111
Observed
Jun-17 @ 10:02 UTC
Wind
  • 360° at 5 KTS
Visibility
10 SM
Flight Rules
MVFR
Cloud Levels
  • Overcast at 1,000' AGL
Temperature
14°C / 57°F
Dewpoint
11°C / 52°F
Humidity
82%
Altimeter
29.96" Hg
Pressure
1014.52 hPa